createdAt,value
2018-12-22T00:00:09.363Z,9.88
2018-12-22T00:01:09.343Z,9.79
2018-12-22T00:02:09.333Z,9.89
2018-12-22T00:03:09.318Z,9.88
2018-12-22T00:04:09.323Z,9.89
2018-12-22T00:05:09.300Z,9.83
2018-12-22T00:06:09.293Z,9.89
2018-12-22T00:07:09.280Z,9.82
2018-12-22T00:08:09.268Z,9.83
2018-12-22T00:09:09.266Z,9.79
2018-12-22T00:10:09.244Z,9.89
2018-12-22T00:11:09.233Z,9.88
2018-12-22T00:12:09.235Z,9.89
2018-12-22T00:13:09.211Z,9.86
2018-12-22T00:14:09.210Z,9.86
2018-12-22T00:15:09.189Z,9.88
2018-12-22T00:16:09.181Z,9.85
2018-12-22T00:17:09.171Z,9.86
2018-12-22T00:18:09.159Z,9.91
2018-12-22T00:19:09.158Z,9.82
2018-12-22T00:20:09.136Z,9.79
2018-12-22T00:21:09.125Z,9.79
2018-12-22T00:22:09.115Z,9.88
2018-12-22T00:23:09.104Z,9.85
2018-12-22T00:24:09.111Z,9.75
2018-12-22T00:25:09.084Z,9.79
2018-12-22T00:26:09.072Z,9.81
2018-12-22T00:27:09.060Z,9.73
2018-12-22T00:28:09.052Z,9.75
2018-12-22T00:29:09.060Z,9.73
2018-12-22T00:30:09.031Z,9.71
2018-12-22T00:31:09.019Z,9.76
2018-12-22T00:32:09.010Z,9.73
2018-12-22T00:33:09.008Z,9.66
2018-12-22T00:34:09.182Z,9.66
2018-12-22T00:35:08.977Z,9.67
2018-12-22T00:36:08.968Z,9.75
2018-12-22T00:37:08.966Z,9.73
2018-12-22T00:38:08.945Z,9.68
2018-12-22T00:39:08.930Z,9.73
2018-12-22T00:40:08.936Z,9.71
2018-12-22T00:41:08.913Z,9.70
2018-12-22T00:42:08.899Z,9.73
2018-12-22T00:43:08.891Z,9.64
2018-12-22T00:44:08.879Z,9.66
2018-12-22T00:45:08.886Z,9.57
2018-12-22T00:46:08.856Z,9.57
2018-12-22T00:47:08.850Z,9.63
2018-12-22T00:48:08.837Z,9.61
2018-12-22T00:49:08.825Z,9.56
2018-12-22T00:50:08.825Z,9.61
2018-12-22T00:51:08.807Z,9.63
2018-12-22T00:52:08.794Z,9.49
2018-12-22T00:53:08.790Z,9.53
2018-12-22T00:54:08.772Z,9.57
2018-12-22T00:55:08.780Z,9.46
2018-12-22T00:56:08.752Z,9.52
2018-12-22T00:57:08.739Z,9.56
2018-12-22T00:58:08.732Z,9.53
2018-12-22T00:59:08.717Z,9.45
2018-12-22T01:00:08.717Z,9.48
2018-12-22T01:01:08.697Z,9.53
2018-12-22T01:02:08.686Z,9.42
2018-12-22T01:03:08.679Z,9.46
2018-12-22T01:04:08.663Z,9.48
2018-12-22T01:05:08.665Z,9.43
2018-12-22T01:06:08.642Z,9.49
2018-12-22T01:07:08.632Z,9.48
2018-12-22T01:08:08.621Z,9.46
2018-12-22T01:09:08.608Z,9.42
2018-12-22T01:10:08.610Z,9.39
2018-12-22T01:11:08.591Z,9.38
2018-12-22T01:12:08.578Z,9.28
2018-12-22T01:13:08.575Z,9.24
2018-12-22T01:14:08.556Z,9.34
2018-12-22T01:15:08.573Z,9.39
2018-12-22T01:16:08.536Z,9.31
2018-12-22T01:17:09.194Z,9.39
2018-12-22T01:18:08.512Z,9.30
2018-12-22T01:19:08.502Z,9.34
2018-12-22T01:20:08.504Z,9.35
2018-12-22T01:21:08.481Z,9.34
2018-12-22T01:22:08.486Z,9.34
2018-12-22T01:23:08.456Z,9.39
2018-12-22T01:24:08.448Z,9.35
2018-12-22T01:25:08.468Z,9.38
2018-12-22T01:26:08.432Z,9.45
2018-12-22T01:27:08.415Z,9.40
2018-12-22T01:28:08.405Z,9.42
2018-12-22T01:29:08.396Z,9.39
2018-12-22T01:30:08.400Z,9.42
2018-12-22T01:31:08.385Z,9.40
2018-12-22T01:32:08.365Z,9.48
2018-12-22T01:33:08.354Z,9.43
2018-12-22T01:34:08.343Z,9.45
2018-12-22T01:35:08.329Z,9.48
2018-12-22T01:36:08.331Z,9.46
2018-12-22T01:37:08.308Z,9.49
2018-12-22T01:38:08.300Z,9.45
2018-12-22T01:39:08.301Z,9.46
2018-12-22T01:40:08.275Z,9.49
2018-12-22T01:41:08.276Z,9.48
2018-12-22T01:42:08.255Z,9.50
2018-12-22T01:43:08.244Z,9.42
2018-12-22T01:44:08.234Z,9.39
2018-12-22T01:45:08.227Z,9.39
2018-12-22T01:46:08.224Z,9.38
2018-12-22T01:47:08.198Z,9.38
2018-12-22T01:48:08.195Z,9.35
2018-12-22T01:49:08.177Z,9.31
2018-12-22T01:50:08.171Z,9.40
2018-12-22T01:51:08.164Z,9.32
2018-12-22T01:52:08.144Z,9.30
2018-12-22T01:53:08.134Z,9.24
2018-12-22T01:54:08.124Z,9.24
2018-12-22T01:55:08.112Z,9.30
2018-12-22T01:56:08.113Z,9.30
2018-12-22T01:57:08.091Z,9.27
2018-12-22T01:58:08.121Z,9.21
2018-12-22T01:59:08.069Z,9.21
2018-12-22T02:00:08.065Z,9.24
2018-12-22T02:01:08.057Z,9.24
2018-12-22T02:02:08.036Z,9.24
2018-12-22T02:03:08.026Z,9.15
2018-12-22T02:04:08.016Z,9.12
2018-12-22T02:05:08.003Z,9.09
2018-12-22T02:06:08.005Z,9.13
2018-12-22T02:07:07.983Z,9.16
2018-12-22T02:08:07.985Z,9.12
2018-12-22T02:09:07.964Z,9.13
2018-12-22T02:10:07.952Z,9.10
2018-12-22T02:11:07.981Z,9.09
2018-12-22T02:12:07.931Z,9.16
2018-12-22T02:13:07.917Z,9.20
2018-12-22T02:14:07.909Z,9.13
2018-12-22T02:15:07.898Z,9.18
2018-12-22T02:16:07.886Z,9.10
2018-12-22T02:17:07.891Z,9.20
2018-12-22T02:18:07.864Z,9.24
2018-12-22T02:19:07.857Z,9.18
2018-12-22T02:20:07.844Z,9.16
2018-12-22T02:21:07.836Z,9.16
2018-12-22T02:22:07.833Z,9.20
2018-12-22T02:23:07.809Z,9.20
2018-12-22T02:24:07.803Z,9.16
2018-12-22T02:25:07.791Z,9.13
2018-12-22T02:26:07.806Z,9.23
2018-12-22T02:27:07.779Z,9.21
2018-12-22T02:28:07.756Z,9.20
2018-12-22T02:29:07.747Z,9.15
2018-12-22T02:30:07.739Z,9.21
2018-12-22T02:31:07.727Z,9.16
2018-12-22T02:32:07.727Z,9.21
2018-12-22T02:33:07.713Z,9.16
2018-12-22T02:34:07.694Z,9.18
2018-12-22T02:35:07.682Z,9.09
2018-12-22T02:36:07.677Z,9.18
2018-12-22T02:37:07.679Z,9.12
2018-12-22T02:38:07.648Z,9.09
2018-12-22T02:39:07.641Z,9.06
2018-12-22T02:40:07.654Z,9.12
2018-12-22T02:41:07.619Z,9.06
2018-12-22T02:42:07.621Z,9.09
2018-12-22T02:43:07.598Z,9.06
2018-12-22T02:44:07.585Z,9.06
2018-12-22T02:45:07.575Z,9.10
2018-12-22T02:46:07.563Z,9.06
2018-12-22T02:47:07.563Z,9.04
2018-12-22T02:48:07.545Z,9.04
2018-12-22T02:49:07.535Z,9.10
2018-12-22T02:50:07.525Z,9.10
2018-12-22T02:51:07.510Z,9.12
2018-12-22T02:52:07.508Z,9.09
2018-12-22T02:53:07.494Z,9.02
2018-12-22T02:54:07.482Z,9.09
2018-12-22T02:55:07.467Z,9.05
2018-12-22T02:56:07.555Z,9.09
2018-12-22T02:57:07.456Z,9.06
2018-12-22T02:58:07.435Z,9.04
2018-12-22T02:59:07.424Z,9.09
2018-12-22T03:00:07.413Z,9.06
2018-12-22T03:01:07.402Z,9.09
2018-12-22T03:02:07.405Z,9.12
2018-12-22T03:03:07.381Z,9.06
2018-12-22T03:04:07.369Z,9.06
2018-12-22T03:05:07.371Z,9.04
2018-12-22T03:06:07.349Z,8.97
2018-12-22T03:07:07.350Z,8.91
2018-12-22T03:08:07.328Z,8.97
2018-12-22T03:09:07.317Z,9.01
2018-12-22T03:10:07.306Z,8.94
2018-12-22T03:11:07.296Z,8.96
2018-12-22T03:12:07.294Z,8.91
2018-12-22T03:13:07.273Z,8.91
2018-12-22T03:14:07.260Z,8.96
2018-12-22T03:15:07.254Z,8.94
2018-12-22T03:16:07.246Z,8.96
2018-12-22T03:17:07.259Z,8.91
2018-12-22T03:18:07.218Z,8.97
2018-12-22T03:19:07.209Z,8.87
2018-12-22T03:20:07.205Z,8.91
2018-12-22T03:21:07.194Z,8.87
2018-12-22T03:22:07.181Z,8.86
2018-12-22T03:23:07.178Z,8.91
2018-12-22T03:24:07.155Z,8.84
2018-12-22T03:25:07.145Z,8.88
2018-12-22T03:26:07.135Z,8.88
2018-12-22T03:27:07.125Z,8.84
2018-12-22T03:28:07.120Z,8.86
2018-12-22T03:29:15.276Z,8.88
2018-12-22T03:30:08.091Z,8.88
2018-12-22T03:31:07.088Z,8.87
2018-12-22T03:32:07.076Z,8.86
2018-12-22T03:33:07.070Z,8.84
2018-12-22T03:34:07.047Z,8.86
2018-12-22T03:35:07.038Z,8.79
2018-12-22T03:36:07.026Z,8.79
2018-12-22T03:37:07.014Z,8.73
2018-12-22T03:38:07.014Z,8.84
2018-12-22T03:39:06.992Z,8.72
2018-12-22T03:40:06.981Z,8.71
2018-12-22T03:41:06.970Z,8.71
2018-12-22T03:42:06.963Z,8.79
2018-12-22T03:43:06.964Z,8.71
2018-12-22T03:44:06.940Z,8.73
2018-12-22T03:45:06.928Z,8.75
2018-12-22T03:46:06.925Z,8.73
2018-12-22T03:47:06.914Z,8.79
2018-12-22T03:48:06.908Z,8.78
2018-12-22T03:49:06.890Z,8.72
2018-12-22T03:50:06.874Z,8.71
2018-12-22T03:51:06.866Z,8.73
2018-12-22T03:52:06.946Z,8.71
2018-12-22T03:53:06.867Z,8.72
2018-12-22T03:54:06.847Z,8.68
2018-12-22T03:55:06.821Z,8.71
2018-12-22T03:56:06.810Z,8.73
2018-12-22T03:57:06.799Z,8.71
2018-12-22T03:58:06.803Z,8.72
2018-12-22T03:59:06.779Z,8.71
2018-12-22T04:00:06.766Z,8.69
2018-12-22T04:01:06.755Z,8.55
2018-12-22T04:02:06.746Z,8.66
2018-12-22T04:03:06.743Z,8.62
2018-12-22T04:04:06.725Z,8.62
2018-12-22T04:05:06.720Z,8.69
2018-12-22T04:06:06.701Z,8.55
2018-12-22T04:07:06.697Z,8.66
2018-12-22T04:08:06.690Z,8.58
2018-12-22T04:09:09.064Z,8.58
2018-12-22T04:10:06.662Z,8.60
2018-12-22T04:11:06.647Z,8.55
2018-12-22T04:12:06.641Z,8.63
2018-12-22T04:13:06.639Z,8.60
2018-12-22T04:14:06.615Z,8.57
2018-12-22T04:15:06.608Z,8.58
2018-12-22T04:16:06.596Z,8.55
2018-12-22T04:17:06.583Z,8.55
2018-12-22T04:18:06.584Z,8.58
2018-12-22T04:19:06.563Z,8.53
2018-12-22T04:20:06.549Z,8.53
2018-12-22T04:21:06.544Z,8.60
2018-12-22T04:22:06.530Z,8.60
2018-12-22T04:23:06.530Z,8.57
2018-12-22T04:24:06.509Z,8.58
2018-12-22T04:25:06.518Z,8.55
2018-12-22T04:26:06.486Z,8.53
2018-12-22T04:27:06.476Z,8.54
2018-12-22T04:28:06.475Z,8.55
2018-12-22T04:29:06.453Z,8.51
2018-12-22T04:30:06.444Z,8.58
2018-12-22T04:31:06.464Z,8.54
2018-12-22T04:32:06.422Z,8.55
2018-12-22T04:33:06.434Z,8.53
2018-12-22T04:34:06.401Z,8.54
2018-12-22T04:35:06.389Z,8.58
2018-12-22T04:36:06.378Z,8.53
2018-12-22T04:37:06.370Z,8.63
2018-12-22T04:38:06.385Z,8.54
2018-12-22T04:39:06.345Z,8.57
2018-12-22T04:40:06.337Z,8.57
2018-12-22T04:41:06.325Z,8.50
2018-12-22T04:42:06.316Z,8.58
2018-12-22T04:43:06.303Z,8.57
2018-12-22T04:44:06.310Z,8.63
2018-12-22T04:45:06.282Z,8.50
2018-12-22T04:46:06.269Z,8.53
2018-12-22T04:47:06.267Z,8.50
2018-12-22T04:48:06.250Z,8.57
2018-12-22T04:49:06.255Z,8.55
2018-12-22T04:50:06.228Z,8.50
2018-12-22T04:51:06.228Z,8.53
2018-12-22T04:52:06.209Z,8.54
2018-12-22T04:53:06.195Z,8.51
2018-12-22T04:54:06.199Z,8.50
2018-12-22T04:55:06.175Z,8.53
2018-12-22T04:56:06.161Z,8.50
2018-12-22T04:57:06.162Z,8.45
2018-12-22T04:58:06.143Z,8.54
2018-12-22T04:59:06.143Z,8.48
2018-12-22T05:00:06.138Z,8.47
2018-12-22T05:01:06.106Z,8.62
2018-12-22T05:02:06.099Z,8.47
2018-12-22T05:03:06.086Z,8.50
2018-12-22T05:04:06.089Z,8.62
2018-12-22T05:05:06.065Z,8.50
2018-12-22T05:06:06.060Z,8.45
2018-12-22T05:07:06.044Z,8.50
2018-12-22T05:08:06.034Z,8.50
2018-12-22T05:09:06.034Z,8.55
2018-12-22T05:10:06.013Z,8.50
2018-12-22T05:11:06.003Z,8.47
2018-12-22T05:12:05.992Z,8.51
2018-12-22T05:13:05.981Z,8.50
2018-12-22T05:14:05.982Z,8.50
2018-12-22T05:15:05.971Z,8.48
2018-12-22T05:16:05.951Z,8.53
2018-12-22T05:17:05.943Z,8.50
2018-12-22T05:18:05.927Z,8.50
2018-12-22T05:19:05.945Z,8.45
2018-12-22T05:20:05.904Z,8.54
2018-12-22T05:21:05.895Z,8.44
2018-12-22T05:22:05.887Z,8.48
2018-12-22T05:23:05.875Z,8.37
2018-12-22T05:24:05.863Z,8.37
2018-12-22T05:25:05.869Z,8.36
2018-12-22T05:26:05.861Z,8.40
2018-12-22T05:27:05.836Z,8.40
2018-12-22T05:28:05.817Z,8.44
2018-12-22T05:29:05.818Z,8.47
2018-12-22T05:30:05.810Z,8.48
2018-12-22T05:31:05.786Z,8.44
2018-12-22T05:32:05.784Z,8.37
2018-12-22T05:33:05.767Z,8.32
2018-12-22T05:34:05.759Z,8.35
2018-12-22T05:35:05.757Z,8.39
2018-12-22T05:36:05.733Z,8.36
2018-12-22T05:37:05.723Z,8.42
2018-12-22T05:38:05.719Z,8.37
2018-12-22T05:39:05.699Z,8.35
2018-12-22T05:40:05.719Z,8.37
2018-12-22T05:41:05.679Z,8.37
2018-12-22T05:42:05.674Z,8.39
2018-12-22T05:43:05.657Z,8.36
2018-12-22T05:44:05.647Z,8.33
2018-12-22T05:45:05.700Z,8.36
2018-12-22T05:46:05.622Z,8.39
2018-12-22T05:47:05.614Z,8.37
2018-12-22T05:48:05.602Z,8.36
2018-12-22T05:49:05.592Z,8.36
2018-12-22T05:50:05.580Z,8.37
2018-12-22T05:51:05.582Z,8.36
2018-12-22T05:52:05.563Z,8.33
2018-12-22T05:53:05.551Z,8.44
2018-12-22T05:54:05.540Z,8.33
2018-12-22T05:55:05.529Z,8.30
2018-12-22T05:56:05.531Z,8.37
2018-12-22T05:57:05.508Z,8.39
2018-12-22T05:58:05.500Z,8.39
2018-12-22T05:59:05.487Z,8.36
2018-12-22T06:00:05.474Z,8.42
2018-12-22T06:01:05.500Z,8.39
2018-12-22T06:02:05.456Z,8.33
2018-12-22T06:03:05.442Z,8.37
2018-12-22T06:04:05.433Z,8.36
2018-12-22T06:05:05.422Z,8.30
2018-12-22T06:06:05.425Z,8.39
2018-12-22T06:07:05.402Z,8.33
2018-12-22T06:08:05.398Z,8.30
2018-12-22T06:09:05.378Z,8.32
2018-12-22T06:10:05.372Z,8.32
2018-12-22T06:11:05.379Z,8.33
2018-12-22T06:12:05.353Z,8.33
2018-12-22T06:13:05.339Z,8.36
2018-12-22T06:14:05.325Z,8.33
2018-12-22T06:15:05.315Z,8.36
2018-12-22T06:16:05.316Z,8.29
2018-12-22T06:17:05.308Z,8.26
2018-12-22T06:18:05.284Z,8.35
2018-12-22T06:19:05.277Z,8.36
2018-12-22T06:20:05.267Z,8.29
2018-12-22T06:21:05.297Z,8.39
2018-12-22T06:22:05.243Z,8.36
2018-12-22T06:23:05.229Z,8.37
2018-12-22T06:24:05.222Z,8.33
2018-12-22T06:25:05.212Z,8.28
2018-12-22T06:26:05.197Z,8.39
2018-12-22T06:27:05.201Z,8.35
2018-12-22T06:28:05.176Z,8.32
2018-12-22T06:29:05.167Z,8.33
2018-12-22T06:30:09.177Z,8.30
2018-12-22T06:31:05.145Z,8.33
2018-12-22T06:32:05.155Z,8.29
2018-12-22T06:33:05.143Z,8.28
2018-12-22T06:34:05.115Z,8.25
2018-12-22T06:35:05.101Z,8.28
2018-12-22T06:36:05.092Z,8.30
2018-12-22T06:37:05.094Z,8.29
2018-12-22T06:38:05.071Z,8.30
2018-12-22T06:39:05.065Z,8.32
2018-12-22T06:40:05.046Z,8.30
2018-12-22T06:41:05.040Z,8.33
2018-12-22T06:42:05.039Z,8.30
2018-12-22T06:43:05.016Z,8.32
2018-12-22T06:44:05.009Z,8.32
2018-12-22T06:45:05.003Z,8.32
2018-12-22T06:46:05.011Z,8.30
2018-12-22T06:47:04.988Z,8.26
2018-12-22T06:48:04.966Z,8.26
2018-12-22T06:49:04.965Z,8.26
2018-12-22T06:50:04.945Z,8.25
2018-12-22T06:51:04.931Z,8.30
2018-12-22T06:52:04.935Z,8.30
2018-12-22T06:53:04.912Z,8.20
2018-12-22T06:54:04.902Z,8.36
2018-12-22T06:55:04.889Z,8.30
2018-12-22T06:56:04.887Z,8.32
2018-12-22T06:57:04.879Z,8.33
2018-12-22T06:58:04.856Z,8.32
2018-12-22T06:59:04.847Z,8.29
2018-12-22T07:00:04.839Z,8.28
2018-12-22T07:01:04.827Z,8.29
2018-12-22T07:02:04.849Z,8.32
2018-12-22T07:03:04.807Z,8.33
2018-12-22T07:04:04.795Z,8.32
2018-12-22T07:05:04.786Z,8.29
2018-12-22T07:06:04.770Z,8.25
2018-12-22T07:07:04.763Z,8.28
2018-12-22T07:08:04.764Z,8.22
2018-12-22T07:09:04.739Z,8.20
2018-12-22T07:10:04.729Z,8.28
2018-12-22T07:11:04.718Z,8.26
2018-12-22T07:12:04.706Z,8.30
2018-12-22T07:13:04.711Z,8.20
2018-12-22T07:14:04.687Z,8.25
2018-12-22T07:15:04.676Z,8.26
2018-12-22T07:16:04.665Z,8.21
2018-12-22T07:17:04.652Z,8.21
2018-12-22T07:18:04.659Z,8.25
2018-12-22T07:19:04.635Z,8.12
2018-12-22T07:20:04.620Z,8.11
2018-12-22T07:21:04.622Z,8.20
2018-12-22T07:22:04.601Z,8.14
2018-12-22T07:23:04.600Z,8.11
2018-12-22T07:24:04.579Z,8.14
2018-12-22T07:25:04.567Z,8.07
2018-12-22T07:26:04.556Z,8.12
2018-12-22T07:27:04.546Z,8.11
2018-12-22T07:28:04.575Z,8.12
2018-12-22T07:29:04.525Z,8.11
2018-12-22T07:30:04.513Z,8.12
2018-12-22T07:31:04.507Z,8.14
2018-12-22T07:32:04.501Z,8.14
2018-12-22T07:33:04.483Z,8.11
2018-12-22T07:34:04.481Z,8.12
2018-12-22T07:35:04.460Z,8.15
2018-12-22T07:36:04.451Z,8.10
2018-12-22T07:37:04.464Z,8.15
2018-12-22T07:38:04.426Z,8.20
2018-12-22T07:39:04.435Z,8.15
2018-12-22T07:40:04.408Z,8.10
2018-12-22T07:41:04.397Z,8.10
2018-12-22T07:42:04.386Z,8.18
2018-12-22T07:43:04.380Z,8.18
2018-12-22T07:44:04.381Z,8.12
2018-12-22T07:45:04.355Z,8.04
2018-12-22T07:46:04.342Z,8.07
2018-12-22T07:47:04.331Z,8.10
2018-12-22T07:48:04.324Z,8.11
2018-12-22T07:49:04.329Z,8.04
2018-12-22T07:50:04.334Z,8.10
2018-12-22T07:51:04.293Z,8.10
2018-12-22T07:52:04.289Z,8.07
2018-12-22T07:53:04.275Z,8.07
2018-12-22T07:54:04.267Z,8.04
2018-12-22T07:55:04.246Z,8.08
2018-12-22T07:56:04.238Z,8.03
2018-12-22T07:57:04.224Z,8.10
2018-12-22T07:58:04.220Z,8.04
2018-12-22T07:59:04.216Z,8.18
2018-12-22T08:00:04.194Z,8.15
2018-12-22T08:01:04.181Z,8.04
2018-12-22T08:02:04.170Z,8.10
2018-12-22T08:03:04.162Z,8.04
2018-12-22T08:04:04.162Z,8.03
2018-12-22T08:05:04.136Z,8.08
2018-12-22T08:06:04.129Z,8.11
2018-12-22T08:07:04.119Z,8.04
2018-12-22T08:08:04.105Z,8.02
2018-12-22T08:09:04.123Z,8.08
2018-12-22T08:10:04.083Z,8.08
2018-12-22T08:11:04.074Z,8.08
2018-12-22T08:12:04.061Z,8.07
2018-12-22T08:13:04.063Z,8.15
2018-12-22T08:14:04.052Z,8.04
2018-12-22T08:15:04.031Z,8.11
2018-12-22T08:16:04.021Z,8.10
2018-12-22T08:17:04.009Z,8.10
2018-12-22T08:18:04.004Z,8.15
2018-12-22T08:19:03.998Z,8.11
2018-12-22T08:20:03.976Z,8.12
2018-12-22T08:21:03.966Z,8.11
2018-12-22T08:22:03.953Z,8.21
2018-12-22T08:23:03.943Z,8.17
2018-12-22T08:24:03.955Z,8.14
2018-12-22T08:25:03.945Z,8.22
2018-12-22T08:26:03.914Z,8.21
2018-12-22T08:27:03.902Z,8.20
2018-12-22T08:28:03.891Z,8.20
2018-12-22T08:29:03.956Z,8.18
2018-12-22T08:30:03.870Z,8.17
2018-12-22T08:31:03.860Z,8.14
2018-12-22T08:32:03.848Z,8.17
2018-12-22T08:33:03.841Z,8.17
2018-12-22T08:34:03.825Z,8.15
2018-12-22T08:35:03.826Z,8.21
2018-12-22T08:36:03.812Z,8.22
2018-12-22T08:37:03.807Z,8.14
2018-12-22T08:38:03.786Z,8.10
2018-12-22T08:39:03.774Z,8.14
2018-12-22T08:40:03.780Z,8.17
2018-12-22T08:41:03.764Z,8.11
2018-12-22T08:42:03.740Z,8.17
2018-12-22T08:43:03.731Z,8.17
2018-12-22T08:44:03.727Z,8.15
2018-12-22T08:45:03.724Z,8.14
2018-12-22T08:46:03.698Z,8.21
2018-12-22T08:47:03.690Z,8.22
2018-12-22T08:48:03.676Z,8.18
2018-12-22T08:49:03.668Z,8.25
2018-12-22T08:50:08.934Z,8.22
2018-12-22T08:51:04.646Z,8.17
2018-12-22T08:52:03.637Z,8.17
2018-12-22T08:53:03.625Z,8.21
2018-12-22T08:54:03.614Z,8.20
2018-12-22T08:55:03.632Z,8.18
2018-12-22T08:56:03.592Z,8.22
2018-12-22T08:57:03.596Z,8.21
2018-12-22T08:58:03.570Z,8.21
2018-12-22T08:59:03.558Z,8.18
2018-12-22T09:00:03.559Z,8.28
2018-12-22T09:01:03.544Z,8.21
2018-12-22T09:02:03.531Z,8.22
2018-12-22T09:03:03.516Z,8.22
2018-12-22T09:04:03.504Z,8.22
2018-12-22T09:05:03.509Z,8.22
2018-12-22T09:06:03.486Z,8.28
2018-12-22T09:07:03.475Z,8.28
2018-12-22T09:08:03.473Z,8.28
2018-12-22T09:09:03.449Z,8.26
2018-12-22T09:10:03.453Z,8.22
2018-12-22T09:11:04.395Z,8.26
2018-12-22T09:12:03.420Z,8.33
2018-12-22T09:13:03.429Z,8.29
2018-12-22T09:14:03.398Z,8.30
2018-12-22T09:15:03.436Z,8.35
2018-12-22T09:16:03.382Z,8.30
2018-12-22T09:17:03.368Z,8.30
2018-12-22T09:18:03.356Z,8.32
2018-12-22T09:19:03.344Z,8.35
2018-12-22T09:20:03.336Z,8.32
2018-12-22T09:21:03.340Z,8.29
2018-12-22T09:22:03.311Z,8.28
2018-12-22T09:23:03.301Z,8.22
2018-12-22T09:24:03.291Z,8.17
2018-12-22T09:25:03.278Z,8.17
2018-12-22T09:26:03.287Z,8.25
2018-12-22T09:27:03.257Z,8.20
2018-12-22T09:28:03.249Z,8.18
2018-12-22T09:29:03.238Z,8.28
2018-12-22T09:30:03.230Z,8.25
2018-12-22T09:31:03.232Z,8.26
2018-12-22T09:32:03.206Z,8.28
2018-12-22T09:33:03.233Z,8.18
2018-12-22T09:34:03.184Z,8.25
2018-12-22T09:35:03.217Z,8.22
2018-12-22T09:36:03.207Z,8.22
2018-12-22T09:37:03.152Z,8.26
2018-12-22T09:38:03.142Z,8.29
2018-12-22T09:39:03.178Z,8.20
2018-12-22T09:40:03.121Z,8.21
2018-12-22T09:41:03.128Z,8.25
2018-12-22T09:42:03.104Z,8.18
2018-12-22T09:43:03.089Z,8.22
2018-12-22T09:44:03.077Z,8.28
2018-12-22T09:45:03.113Z,8.22
2018-12-22T09:46:03.069Z,8.25
2018-12-22T09:47:03.049Z,8.18
2018-12-22T09:48:03.041Z,8.20
2018-12-22T09:49:03.033Z,8.21
2018-12-22T09:50:03.017Z,8.20
2018-12-22T09:51:03.021Z,8.22
2018-12-22T09:52:03.040Z,8.25
2018-12-22T09:53:03.005Z,8.20
2018-12-22T09:54:02.976Z,8.11
2018-12-22T09:55:02.999Z,8.14
2018-12-22T09:56:02.962Z,8.11
2018-12-22T09:57:02.940Z,8.14
2018-12-22T09:58:02.934Z,8.15
2018-12-22T09:59:02.918Z,8.10
2018-12-22T10:00:02.910Z,8.11
2018-12-22T10:01:09.296Z,8.18
2018-12-22T10:02:03.902Z,8.15
2018-12-22T10:03:02.884Z,8.20
2018-12-22T10:04:02.866Z,8.15
2018-12-22T10:05:02.853Z,8.10
2018-12-22T10:06:02.845Z,8.15
2018-12-22T10:07:02.841Z,8.07
2018-12-22T10:08:02.820Z,8.10
2018-12-22T10:09:02.809Z,8.12
2018-12-22T10:10:02.798Z,8.17
2018-12-22T10:11:02.794Z,8.17
2018-12-22T10:12:02.787Z,8.17
2018-12-22T10:13:02.766Z,8.22
2018-12-22T10:14:02.763Z,8.15
2018-12-22T10:15:02.748Z,8.20
2018-12-22T10:16:02.738Z,8.17
2018-12-22T10:17:04.864Z,8.14
2018-12-22T10:18:02.722Z,8.17
2018-12-22T10:19:02.715Z,8.04
2018-12-22T10:20:02.693Z,8.02
2018-12-22T10:21:02.814Z,8.03
2018-12-22T10:22:02.721Z,7.97
2018-12-22T10:23:02.663Z,7.96
2018-12-22T10:24:02.652Z,7.90
2018-12-22T10:25:02.636Z,7.89
2018-12-22T10:26:02.630Z,7.93
2018-12-22T10:27:02.629Z,7.85
2018-12-22T10:28:02.607Z,7.87
2018-12-22T10:29:02.597Z,7.93
2018-12-22T10:30:02.592Z,7.89
2018-12-22T10:31:02.590Z,7.84
2018-12-22T10:32:02.581Z,7.84
2018-12-22T10:33:02.552Z,7.79
2018-12-22T10:34:02.645Z,7.84
2018-12-22T10:35:02.531Z,7.82
2018-12-22T10:36:03.807Z,7.85
2018-12-22T10:37:02.548Z,7.85
2018-12-22T10:38:02.498Z,7.89
2018-12-22T10:39:02.587Z,7.89
2018-12-22T10:40:02.482Z,7.82
2018-12-22T10:41:02.468Z,7.93
2018-12-22T10:42:02.485Z,7.89
2018-12-22T10:43:02.446Z,7.93
2018-12-22T10:44:02.435Z,7.90
2018-12-22T10:45:02.423Z,7.92
2018-12-22T10:46:02.415Z,7.96
2018-12-22T10:47:02.414Z,7.96
2018-12-22T10:48:02.394Z,7.93
2018-12-22T10:49:02.385Z,7.87
2018-12-22T10:50:02.373Z,7.96
2018-12-22T10:51:02.493Z,7.97
2018-12-22T10:52:02.363Z,7.94
2018-12-22T10:53:02.341Z,7.87
2018-12-22T10:54:02.326Z,7.87
2018-12-22T10:55:02.314Z,7.90
2018-12-22T10:56:02.312Z,7.90
2018-12-22T10:57:04.127Z,7.90
2018-12-22T10:58:02.285Z,8.00
2018-12-22T10:59:02.272Z,7.90
2018-12-22T11:00:02.266Z,7.89
2018-12-22T11:01:02.250Z,7.92
2018-12-22T11:02:02.242Z,7.92
2018-12-22T11:03:02.243Z,7.97
2018-12-22T11:04:02.219Z,7.94
2018-12-22T11:05:02.216Z,7.99
2018-12-22T11:06:02.204Z,7.97
2018-12-22T11:07:02.185Z,8.08
2018-12-22T11:08:02.190Z,8.07
2018-12-22T11:09:02.171Z,8.10
2018-12-22T11:10:02.154Z,8.04
2018-12-22T11:11:02.144Z,7.97
2018-12-22T11:12:02.133Z,7.97
2018-12-22T11:13:02.135Z,8.04
2018-12-22T11:14:02.114Z,7.97
2018-12-22T11:15:02.104Z,8.00
2018-12-22T11:16:02.096Z,8.00
2018-12-22T11:17:02.080Z,8.04
2018-12-22T11:18:02.077Z,7.96
2018-12-22T11:19:02.058Z,7.93
2018-12-22T11:20:02.061Z,8.00
2018-12-22T11:21:02.036Z,7.97
2018-12-22T11:22:02.058Z,7.93
2018-12-22T11:23:02.026Z,7.92
2018-12-22T11:24:03.034Z,7.93
2018-12-22T11:25:01.994Z,7.93
2018-12-22T11:26:01.983Z,7.87
2018-12-22T11:27:01.975Z,7.87
2018-12-22T11:28:01.973Z,7.96
2018-12-22T11:29:01.950Z,7.90
2018-12-22T11:30:01.942Z,7.85
2018-12-22T11:31:01.934Z,8.03
2018-12-22T11:32:01.944Z,7.99
2018-12-22T11:33:03.375Z,8.02
2018-12-22T11:34:01.901Z,7.93
2018-12-22T11:35:01.892Z,7.94
2018-12-22T11:36:01.874Z,8.07
2018-12-22T11:37:01.883Z,8.07
2018-12-22T11:38:01.876Z,8.03
2018-12-22T11:39:01.845Z,8.03
2018-12-22T11:40:01.848Z,8.10
2018-12-22T11:41:01.820Z,8.03
2018-12-22T11:42:01.811Z,8.08
2018-12-22T11:43:01.813Z,8.04
2018-12-22T11:44:01.789Z,8.08
2018-12-22T11:45:01.778Z,8.08
2018-12-22T11:46:01.768Z,8.10
2018-12-22T11:47:01.759Z,8.22
2018-12-22T11:48:01.759Z,8.18
2018-12-22T11:49:01.735Z,8.20
2018-12-22T11:50:01.727Z,8.15
2018-12-22T11:51:01.723Z,8.20
2018-12-22T11:52:01.716Z,8.14
2018-12-22T11:53:01.741Z,8.07
2018-12-22T11:54:01.684Z,8.18
2018-12-22T11:55:01.677Z,8.14
2018-12-22T11:56:01.663Z,8.22
2018-12-22T11:57:01.650Z,8.17
2018-12-22T11:58:01.655Z,8.15
2018-12-22T11:59:01.667Z,8.21
2018-12-22T12:00:01.636Z,8.12
2018-12-22T12:01:01.616Z,8.08
2018-12-22T12:02:09.266Z,8.12
2018-12-22T12:03:02.591Z,8.02
2018-12-22T12:04:01.604Z,8.02
2018-12-22T12:05:01.568Z,7.96
2018-12-22T12:06:01.555Z,7.96
2018-12-22T12:07:01.549Z,7.92
2018-12-22T12:08:01.538Z,7.97
2018-12-22T12:09:01.540Z,7.96
2018-12-22T12:10:01.518Z,7.93
2018-12-22T12:11:01.506Z,7.94
2018-12-22T12:12:01.507Z,7.96
2018-12-22T12:13:01.485Z,7.94
2018-12-22T12:14:01.483Z,7.96
2018-12-22T12:15:01.463Z,8.00
2018-12-22T12:16:01.459Z,7.97
2018-12-22T12:17:01.448Z,7.97
2018-12-22T12:18:01.428Z,7.97
2018-12-22T12:19:01.427Z,7.97
2018-12-22T12:20:01.408Z,7.94
2018-12-22T12:21:01.398Z,7.96
2018-12-22T12:22:01.384Z,7.97
2018-12-22T12:23:01.387Z,8.00
2018-12-22T12:24:01.387Z,7.97
2018-12-22T12:25:01.352Z,7.97
2018-12-22T12:26:01.340Z,7.96
2018-12-22T12:27:01.335Z,7.96
2018-12-22T12:28:01.328Z,7.87
2018-12-22T12:29:01.325Z,7.85
2018-12-22T12:30:01.300Z,7.87
2018-12-22T12:31:01.289Z,7.78
2018-12-22T12:32:01.282Z,7.82
2018-12-22T12:33:01.275Z,7.82
2018-12-22T12:34:01.267Z,7.74
2018-12-22T12:35:01.248Z,7.72
2018-12-22T12:36:01.237Z,7.75
2018-12-22T12:37:01.225Z,7.72
2018-12-22T12:38:01.215Z,7.84
2018-12-22T12:39:01.231Z,7.78
2018-12-22T12:40:01.202Z,7.82
2018-12-22T12:41:01.185Z,7.75
2018-12-22T12:42:01.181Z,7.93
2018-12-22T12:43:01.168Z,7.89
2018-12-22T12:44:01.164Z,7.99
2018-12-22T12:45:01.149Z,7.99
2018-12-22T12:46:01.140Z,8.04
2018-12-22T12:47:01.117Z,8.10
2018-12-22T12:48:01.107Z,8.17
2018-12-22T12:49:01.099Z,8.21
2018-12-22T12:50:01.098Z,8.12
2018-12-22T12:51:01.076Z,8.02
2018-12-22T12:52:01.069Z,8.07
2018-12-22T12:53:09.389Z,8.12
2018-12-22T12:54:02.045Z,8.07
2018-12-22T12:55:01.045Z,8.07
2018-12-22T12:56:01.023Z,8.02
2018-12-22T12:57:01.017Z,8.04
2018-12-22T12:58:01.050Z,8.02
2018-12-22T12:59:00.996Z,8.10
2018-12-22T13:00:00.992Z,8.02
2018-12-22T13:01:00.972Z,8.08
2018-12-22T13:02:01.539Z,7.96
2018-12-22T13:03:00.949Z,7.97
2018-12-22T13:04:00.946Z,7.97
2018-12-22T13:05:00.951Z,8.03
2018-12-22T13:06:00.923Z,7.92
2018-12-22T13:07:00.911Z,7.92
2018-12-22T13:08:00.907Z,7.85
2018-12-22T13:09:01.024Z,7.85
2018-12-22T13:10:00.891Z,7.82
2018-12-22T13:11:00.865Z,7.85
2018-12-22T13:12:00.862Z,7.87
2018-12-22T13:13:00.895Z,7.82
2018-12-22T13:14:00.832Z,7.89
2018-12-22T13:15:00.837Z,7.85
2018-12-22T13:16:00.809Z,7.85
2018-12-22T13:17:00.816Z,7.85
2018-12-22T13:18:00.796Z,7.89